createdAt,value
2023-01-12T00:02:21.031Z,3.58
2023-01-12T00:04:48.421Z,3.67
2023-01-12T00:07:16.861Z,3.47
2023-01-12T00:09:45.040Z,3.15
2023-01-12T00:12:12.648Z,3.28
2023-01-12T00:14:40.250Z,3.20
2023-01-12T00:17:09.134Z,2.83
2023-01-12T00:19:38.874Z,3.00
2023-01-12T00:22:12.098Z,4.17
2023-01-12T00:24:42.440Z,4.53
2023-01-12T00:27:12.385Z,3.70
2023-01-12T00:29:42.184Z,3.00
2023-01-12T00:32:14.870Z,2.30
2023-01-12T00:34:42.785Z,2.38
2023-01-12T00:37:10.792Z,3.20
2023-01-12T00:39:40.757Z,3.20
2023-01-12T00:42:30.768Z,3.97
2023-01-12T00:45:16.464Z,2.78
2023-01-12T00:47:43.896Z,3.03
2023-01-12T00:50:11.260Z,3.08
2023-01-12T00:52:38.541Z,3.75
2023-01-12T00:55:06.614Z,4.03
2023-01-12T00:57:34.836Z,3.20
2023-01-12T01:00:02.297Z,3.33
2023-01-12T01:02:29.873Z,3.20
2023-01-12T01:04:57.504Z,4.70
2023-01-12T01:07:25.134Z,2.63
2023-01-12T01:09:52.623Z,2.42
2023-01-12T01:12:20.196Z,2.88
2023-01-12T01:14:48.805Z,2.97
2023-01-12T01:17:16.120Z,3.05
2023-01-12T01:19:43.790Z,3.38
2023-01-12T01:22:13.264Z,2.83
2023-01-12T01:24:41.617Z,3.53
2023-01-12T01:27:09.165Z,4.68
2023-01-12T01:29:36.983Z,3.78
2023-01-12T01:32:04.753Z,4.20
2023-01-12T01:34:32.573Z,4.53
2023-01-12T01:36:59.815Z,3.75
2023-01-12T01:39:27.448Z,4.35
2023-01-12T01:41:54.948Z,3.17
2023-01-12T01:44:31.422Z,4.30
2023-01-12T01:47:02.640Z,3.70
2023-01-12T01:49:42.601Z,4.40
2023-01-12T01:52:50.232Z,4.28
2023-01-12T01:55:23.993Z,3.58
2023-01-12T01:57:57.491Z,4.82
2023-01-12T02:00:25.381Z,3.83
2023-01-12T02:02:54.517Z,3.50
2023-01-12T02:05:25.916Z,4.68
2023-01-12T02:07:55.699Z,3.85
2023-01-12T02:10:23.125Z,3.78
2023-01-12T02:13:23.232Z,3.67
2023-01-12T02:16:25.956Z,2.47
2023-01-12T02:19:12.043Z,3.60
2023-01-12T02:22:01.102Z,3.92
2023-01-12T02:24:53.079Z,3.67
2023-01-12T02:27:52.525Z,3.88
2023-01-12T02:30:34.903Z,3.60
2023-01-12T02:33:27.929Z,3.75
2023-01-12T02:36:12.475Z,4.00
2023-01-12T02:38:57.480Z,3.15
2023-01-12T02:42:11.317Z,3.28
2023-01-12T02:44:53.972Z,4.07
2023-01-12T02:47:34.709Z,3.50
2023-01-12T02:52:33.709Z,3.38
2023-01-12T02:55:03.744Z,3.97
2023-01-12T02:57:33.626Z,4.05
2023-01-12T03:00:04.976Z,4.17
2023-01-12T03:02:34.227Z,4.28
2023-01-12T03:05:01.499Z,4.10
2023-01-12T03:07:28.813Z,4.03
2023-01-12T03:10:12.530Z,3.53
2023-01-12T03:12:41.923Z,4.13
2023-01-12T03:15:12.369Z,4.03
2023-01-12T03:17:46.768Z,4.15
2023-01-12T03:20:25.642Z,4.32
2023-01-12T03:23:00.993Z,5.45
2023-01-12T03:25:31.776Z,4.10
2023-01-12T03:30:43.983Z,4.03
2023-01-12T03:33:12.976Z,4.45
2023-01-12T03:36:16.110Z,4.93
2023-01-12T03:38:52.943Z,3.38
2023-01-12T03:41:36.674Z,3.92
2023-01-12T03:44:07.806Z,3.70
2023-01-12T03:46:53.454Z,5.07
2023-01-12T03:49:47.382Z,4.95
2023-01-12T03:52:18.292Z,3.50
2023-01-12T03:54:47.733Z,4.55
2023-01-12T03:57:17.066Z,4.38
2023-01-12T03:59:44.590Z,4.35
2023-01-12T04:02:12.685Z,5.22
2023-01-12T04:04:40.247Z,3.88
2023-01-12T04:07:07.675Z,5.10
2023-01-12T04:09:35.223Z,4.28
2023-01-12T04:12:11.818Z,5.47
2023-01-12T04:14:47.641Z,4.22
2023-01-12T04:17:16.222Z,4.18
2023-01-12T04:19:43.519Z,3.83
2023-01-12T04:22:34.151Z,3.63
2023-01-12T04:25:02.107Z,2.88
2023-01-12T04:27:29.559Z,3.25
2023-01-12T04:29:57.536Z,3.83
2023-01-12T04:32:25.509Z,3.15
2023-01-12T04:34:52.814Z,3.28
2023-01-12T04:37:20.256Z,4.75
2023-01-12T04:39:47.540Z,3.67
2023-01-12T04:42:34.373Z,3.10
2023-01-12T04:45:01.704Z,3.30
2023-01-12T04:47:30.195Z,3.35
2023-01-12T04:49:57.361Z,3.50
2023-01-12T04:52:24.749Z,2.92
2023-01-12T04:54:52.234Z,3.60
2023-01-12T04:57:19.612Z,2.90
2023-01-12T04:59:46.933Z,2.75
2023-01-12T05:02:14.273Z,2.55
2023-01-12T05:04:42.915Z,2.63
2023-01-12T05:07:10.320Z,1.92
2023-01-12T05:10:01.623Z,2.05
2023-01-12T05:12:29.066Z,2.85
2023-01-12T05:14:56.479Z,2.75
2023-01-12T05:17:23.959Z,2.50
2023-01-12T05:19:51.314Z,1.83
2023-01-12T05:22:18.680Z,1.42
2023-01-12T05:24:46.021Z,1.65
2023-01-12T05:27:13.305Z,1.75
2023-01-12T05:29:40.687Z,1.30
2023-01-12T05:32:07.955Z,2.35
2023-01-12T05:34:35.267Z,1.85
2023-01-12T05:37:02.723Z,1.77
2023-01-12T05:39:30.236Z,1.70
2023-01-12T05:42:16.464Z,1.80
2023-01-12T05:44:43.961Z,1.65
2023-01-12T05:47:11.249Z,1.63
2023-01-12T05:49:39.434Z,1.40
2023-01-12T05:52:06.993Z,1.50
2023-01-12T05:54:34.398Z,1.60
2023-01-12T05:57:01.735Z,1.67
2023-01-12T05:59:29.323Z,1.95
2023-01-12T06:01:56.578Z,1.33
2023-01-12T06:04:25.392Z,1.30
2023-01-12T06:06:53.276Z,1.50
2023-01-12T06:09:20.519Z,1.10
2023-01-12T06:12:06.477Z,1.83
2023-01-12T06:14:33.900Z,1.40
2023-01-12T06:17:01.499Z,1.50
2023-01-12T06:19:29.153Z,1.30
2023-01-12T06:21:59.895Z,1.25
2023-01-12T06:26:55.938Z,1.42
2023-01-12T06:29:23.239Z,1.00
2023-01-12T06:31:50.680Z,1.10
2023-01-12T06:34:17.993Z,1.00
2023-01-12T06:36:45.349Z,0.93
2023-01-12T06:39:13.250Z,1.35
2023-01-12T06:41:59.004Z,1.00
2023-01-12T06:44:26.761Z,1.50
2023-01-12T06:46:54.131Z,1.30
2023-01-12T06:49:21.470Z,1.05
2023-01-12T06:51:51.821Z,1.00
2023-01-12T06:54:19.139Z,1.10
2023-01-12T06:56:49.517Z,1.20
2023-01-12T06:59:16.971Z,0.82
2023-01-12T07:01:44.448Z,0.90
2023-01-12T07:04:12.004Z,0.80
2023-01-12T07:06:39.379Z,0.98
2023-01-12T07:09:06.803Z,0.80
2023-01-12T07:11:34.090Z,0.88
2023-01-12T07:14:02.679Z,0.85
2023-01-12T07:16:30.000Z,0.85
2023-01-12T07:18:58.773Z,0.80
2023-01-12T07:21:26.489Z,1.00
2023-01-12T07:23:54.048Z,0.75
2023-01-12T07:26:21.336Z,0.98
2023-01-12T07:28:48.688Z,1.10
2023-01-12T07:31:16.008Z,1.05
2023-01-12T07:33:43.355Z,1.00
2023-01-12T07:36:10.699Z,1.45
2023-01-12T07:38:38.285Z,1.38
2023-01-12T07:41:05.611Z,1.52
2023-01-12T07:43:34.198Z,2.00
2023-01-12T07:46:01.634Z,1.60
2023-01-12T07:48:28.999Z,1.75
2023-01-12T07:50:58.986Z,1.73
2023-01-12T07:53:27.938Z,1.70
2023-01-12T07:55:55.330Z,1.83
2023-01-12T07:58:22.567Z,1.88
2023-01-12T08:00:50.173Z,2.35
2023-01-12T08:03:17.654Z,1.92
2023-01-12T08:05:44.952Z,2.30
2023-01-12T08:08:12.349Z,2.97
2023-01-12T08:10:41.014Z,2.00
2023-01-12T08:13:08.331Z,3.53
2023-01-12T08:15:43.397Z,2.30
2023-01-12T08:18:31.937Z,2.50
2023-01-12T08:21:04.466Z,2.63
2023-01-12T08:23:37.491Z,3.35
2023-01-12T08:26:10.958Z,3.60
2023-01-12T08:28:43.509Z,3.05
2023-01-12T08:31:14.780Z,3.28
2023-01-12T08:33:43.509Z,3.17
2023-01-12T08:36:14.634Z,2.78
2023-01-12T08:38:42.336Z,3.20
2023-01-12T08:41:28.302Z,3.08
2023-01-12T08:44:27.796Z,2.80
2023-01-12T08:46:55.325Z,2.28
2023-01-12T08:49:25.539Z,2.90
2023-01-12T08:51:53.203Z,2.60
2023-01-12T08:54:24.173Z,2.67
2023-01-12T08:59:19.803Z,3.45
2023-01-12T09:01:47.580Z,2.58
2023-01-12T09:04:15.397Z,2.92
2023-01-12T09:06:44.669Z,2.35
2023-01-12T09:09:15.564Z,2.30
2023-01-12T09:11:44.993Z,2.67
2023-01-12T09:14:14.080Z,2.00
2023-01-12T09:16:42.544Z,2.30
2023-01-12T09:19:10.498Z,2.72
2023-01-12T09:21:41.217Z,3.13
2023-01-12T09:24:09.538Z,2.38
2023-01-12T09:26:42.387Z,2.53
2023-01-12T09:29:11.964Z,2.13
2023-01-12T09:31:41.868Z,2.10
2023-01-12T09:34:09.354Z,2.55
2023-01-12T09:36:39.686Z,3.45
2023-01-12T09:39:10.438Z,3.03
2023-01-12T09:42:09.035Z,2.55
2023-01-12T09:45:08.602Z,2.60
2023-01-12T09:47:48.196Z,2.78
2023-01-12T09:50:29.193Z,2.25
2023-01-12T09:53:16.814Z,2.15
2023-01-12T09:55:54.827Z,2.55
2023-01-12T09:58:41.303Z,2.65
2023-01-12T10:01:24.068Z,2.60
2023-01-12T10:03:55.712Z,2.90
2023-01-12T10:06:23.142Z,2.28
2023-01-12T10:08:56.066Z,2.80
2023-01-12T10:11:32.853Z,2.03
2023-01-12T10:14:38.200Z,2.25
2023-01-12T10:17:20.168Z,2.47
2023-01-12T10:20:08.574Z,2.67
2023-01-12T10:22:48.052Z,2.53
2023-01-12T10:25:24.550Z,2.60
2023-01-12T10:27:54.909Z,2.15
2023-01-12T10:30:30.793Z,2.42
2023-01-12T10:33:20.142Z,2.17
2023-01-12T10:35:59.643Z,2.05
2023-01-12T10:38:35.127Z,1.98
2023-01-12T10:41:24.349Z,1.65
2023-01-12T10:44:15.349Z,2.28
2023-01-12T10:46:42.967Z,2.20
2023-01-12T10:49:24.637Z,2.33
2023-01-12T10:51:56.903Z,2.33
2023-01-12T10:54:28.081Z,2.42
2023-01-12T10:57:18.820Z,2.10
2023-01-12T10:59:54.626Z,1.65
2023-01-12T11:02:24.562Z,2.50
2023-01-12T11:04:53.667Z,2.50
2023-01-12T11:07:29.346Z,2.03
2023-01-12T11:10:19.267Z,1.92
2023-01-12T11:12:58.856Z,2.58
2023-01-12T11:15:28.360Z,2.35
2023-01-12T11:18:54.339Z,3.00
2023-01-12T11:21:29.192Z,2.78
2023-01-12T11:24:11.662Z,2.03
2023-01-12T11:26:55.311Z,2.10
2023-01-12T11:29:35.984Z,2.38
2023-01-12T11:34:53.672Z,2.88
2023-01-12T11:37:21.114Z,2.20
2023-01-12T11:39:58.043Z,2.63
2023-01-12T11:42:48.883Z,2.53
2023-01-12T11:48:03.156Z,1.73
2023-01-12T11:50:36.598Z,2.22
2023-01-12T11:53:06.458Z,1.52
2023-01-12T11:55:53.495Z,1.92
2023-01-12T11:58:35.434Z,1.45
2023-01-12T12:01:16.460Z,2.72
2023-01-12T12:03:57.414Z,1.80
2023-01-12T12:06:43.613Z,2.38
2023-01-12T12:09:52.867Z,2.40
2023-01-12T12:12:38.671Z,2.47
2023-01-12T12:15:25.877Z,2.75
2023-01-12T12:18:26.787Z,2.45
2023-01-12T12:24:13.239Z,2.30
2023-01-12T12:26:51.408Z,3.10
2023-01-12T12:29:56.334Z,2.90
2023-01-12T12:32:35.396Z,3.65
2023-01-12T12:35:41.479Z,2.65
2023-01-12T12:38:49.424Z,2.35
2023-01-12T12:41:49.502Z,2.10
2023-01-12T12:45:04.433Z,2.05
2023-01-12T12:48:02.721Z,1.80
2023-01-12T12:50:32.807Z,1.80
2023-01-12T12:53:33.010Z,2.40
2023-01-12T12:56:12.640Z,2.40
2023-01-12T12:58:41.798Z,2.28
2023-01-12T13:01:37.994Z,2.42
2023-01-12T13:04:07.923Z,2.10
2023-01-12T13:06:38.473Z,2.37
2023-01-12T13:09:11.720Z,2.10
2023-01-12T13:11:57.449Z,1.67
2023-01-12T13:14:34.619Z,2.88
2023-01-12T13:17:22.227Z,1.70
2023-01-12T13:19:53.407Z,1.98
2023-01-12T13:22:32.984Z,1.98
2023-01-12T13:25:01.601Z,2.65
2023-01-12T13:27:48.121Z,2.85
2023-01-12T13:30:30.838Z,2.35
2023-01-12T13:33:24.726Z,2.20
2023-01-12T13:35:52.180Z,2.85
2023-01-12T13:38:33.728Z,2.95
2023-01-12T13:41:47.476Z,3.80
2023-01-12T13:44:43.328Z,2.92
2023-01-12T13:47:19.291Z,3.03
2023-01-12T13:49:51.403Z,3.15
2023-01-12T13:52:30.410Z,2.53
2023-01-12T13:54:59.608Z,2.42
2023-01-12T13:57:29.716Z,3.28
2023-01-12T13:59:59.607Z,2.83
2023-01-12T14:02:32.757Z,3.05
2023-01-12T14:05:24.641Z,3.15
2023-01-12T14:08:15.014Z,3.08
2023-01-12T14:11:16.900Z,2.72
2023-01-12T14:14:28.449Z,3.05
2023-01-12T14:17:16.257Z,3.22
2023-01-12T14:19:51.555Z,2.80
2023-01-12T14:22:20.919Z,2.85
2023-01-12T14:24:48.448Z,3.10
2023-01-12T14:27:27.590Z,3.58
2023-01-12T14:29:55.813Z,2.13
2023-01-12T14:32:24.648Z,2.83
2023-01-12T14:34:55.643Z,2.80
2023-01-12T14:37:29.651Z,2.92
2023-01-12T14:39:57.400Z,2.88
2023-01-12T14:42:43.347Z,2.83
2023-01-12T14:45:38.182Z,3.22
2023-01-12T14:48:22.661Z,2.38
2023-01-12T14:51:02.263Z,3.63
2023-01-12T14:53:38.582Z,3.70
2023-01-12T14:56:17.988Z,4.03
2023-01-12T14:58:46.767Z,3.65
2023-01-12T15:01:31.611Z,4.75
2023-01-12T15:03:59.875Z,3.58
2023-01-12T15:06:27.689Z,4.47
2023-01-12T15:09:01.090Z,4.20
2023-01-12T15:11:31.201Z,3.72
2023-01-12T15:14:03.490Z,4.68
2023-01-12T15:16:49.291Z,4.35
2023-01-12T15:19:35.262Z,4.68
2023-01-12T15:22:21.285Z,4.57
2023-01-12T15:25:07.183Z,5.20
2023-01-12T15:27:40.781Z,5.30
2023-01-12T15:30:11.435Z,4.03
2023-01-12T15:35:26.313Z,3.72
2023-01-12T15:37:56.179Z,4.72
2023-01-12T15:40:25.377Z,4.37
2023-01-12T15:42:53.619Z,3.83
2023-01-12T15:45:20.960Z,3.00
2023-01-12T15:47:50.573Z,3.38
2023-01-12T15:50:17.854Z,3.65
2023-01-12T15:52:45.425Z,3.05
2023-01-12T15:55:18.448Z,2.47
2023-01-12T15:57:47.551Z,2.13
2023-01-12T16:00:19.279Z,2.10
2023-01-12T16:02:49.921Z,3.10
2023-01-12T16:05:20.110Z,2.00
2023-01-12T16:07:48.901Z,3.00
2023-01-12T16:10:17.195Z,2.35
2023-01-12T16:12:45.784Z,2.50
2023-01-12T16:15:24.441Z,2.28
2023-01-12T16:17:52.706Z,2.35
2023-01-12T16:20:20.435Z,2.70
2023-01-12T16:22:47.883Z,2.28
2023-01-12T16:25:15.670Z,2.35
2023-01-12T16:27:43.463Z,2.13
2023-01-12T16:30:15.196Z,2.10
2023-01-12T16:32:47.169Z,2.50
2023-01-12T16:35:15.786Z,2.30
2023-01-12T16:37:44.602Z,2.30
2023-01-12T16:40:12.648Z,2.53
2023-01-12T16:42:39.945Z,3.40
2023-01-12T16:45:08.017Z,3.30
2023-01-12T16:47:35.967Z,3.50
2023-01-12T16:50:06.623Z,4.07
2023-01-12T16:52:34.605Z,3.60
2023-01-12T16:55:02.029Z,3.38
2023-01-12T16:57:29.404Z,3.70
2023-01-12T16:59:56.971Z,2.92
2023-01-12T17:02:24.684Z,2.70
2023-01-12T17:04:52.986Z,2.53
2023-01-12T17:07:20.514Z,2.70
2023-01-12T17:09:48.108Z,2.38
2023-01-12T17:12:15.442Z,2.10
2023-01-12T17:14:42.913Z,2.10
2023-01-12T17:17:11.715Z,2.00
2023-01-12T17:19:42.558Z,1.70
2023-01-12T17:22:11.691Z,1.83
2023-01-12T17:24:40.438Z,1.42
2023-01-12T17:27:10.106Z,1.42
2023-01-12T17:29:38.029Z,1.95
2023-01-12T17:32:07.088Z,4.57
2023-01-12T17:34:39.314Z,1.80
2023-01-12T17:37:10.557Z,2.33
2023-01-12T17:39:43.053Z,1.98
2023-01-12T17:42:31.278Z,1.27
2023-01-12T17:45:00.722Z,1.45
2023-01-12T17:47:28.100Z,1.60
2023-01-12T17:49:55.700Z,1.30
2023-01-12T17:52:23.129Z,1.30
2023-01-12T17:54:51.720Z,0.80
2023-01-12T17:57:19.099Z,1.20
2023-01-12T17:59:46.544Z,1.70
2023-01-12T18:02:15.276Z,1.60
2023-01-12T18:04:42.686Z,2.53
2023-01-12T18:07:10.030Z,2.88
2023-01-12T18:09:38.037Z,3.33
2023-01-12T18:12:05.691Z,3.17
2023-01-12T18:14:34.462Z,3.25
2023-01-12T18:17:02.311Z,2.80
2023-01-12T18:19:30.062Z,2.78
2023-01-12T18:21:57.499Z,2.85
2023-01-12T18:24:30.387Z,2.75
2023-01-12T18:26:59.495Z,2.90
2023-01-12T18:29:26.991Z,3.92
2023-01-12T18:31:54.935Z,3.95
2023-01-12T18:34:22.363Z,3.30
2023-01-12T18:36:49.749Z,4.25
2023-01-12T18:39:19.306Z,2.83
2023-01-12T18:42:05.687Z,2.55
2023-01-12T18:44:40.418Z,2.65
2023-01-12T18:47:26.486Z,2.40
2023-01-12T18:49:57.835Z,2.05
2023-01-12T18:52:45.342Z,2.17
2023-01-12T18:55:12.809Z,2.20
2023-01-12T18:57:41.229Z,2.50
2023-01-12T19:00:11.946Z,2.28
2023-01-12T19:05:23.278Z,2.70
2023-01-12T19:07:50.767Z,2.83
2023-01-12T19:10:18.388Z,3.30
2023-01-12T19:12:46.098Z,3.13
2023-01-12T19:15:32.620Z,3.22
2023-01-12T19:18:00.692Z,2.83
2023-01-12T19:20:31.648Z,2.53
2023-01-12T19:23:17.802Z,2.47
2023-01-12T19:26:04.006Z,3.33
2023-01-12T19:28:38.088Z,2.20
2023-01-12T19:31:07.874Z,2.28
2023-01-12T19:33:35.548Z,2.57
2023-01-12T19:36:08.397Z,1.95
2023-01-12T19:38:36.528Z,2.63
2023-01-12T19:41:14.424Z,2.25
2023-01-12T19:43:45.427Z,2.78
2023-01-12T19:46:15.721Z,2.38
2023-01-12T19:48:44.893Z,2.33
2023-01-12T19:51:12.202Z,2.40
2023-01-12T19:53:40.490Z,2.47
2023-01-12T19:56:12.635Z,3.05
2023-01-12T19:58:40.646Z,2.65
2023-01-12T20:01:08.512Z,2.40
2023-01-12T20:03:38.331Z,2.78
2023-01-12T20:06:06.896Z,3.10
2023-01-12T20:08:34.341Z,2.72
2023-01-12T20:11:04.964Z,3.53
2023-01-12T20:13:33.102Z,2.50
2023-01-12T20:16:09.164Z,2.90
2023-01-12T20:18:37.770Z,3.80
2023-01-12T20:21:09.230Z,3.10
2023-01-12T20:23:36.821Z,2.83
2023-01-12T20:26:09.272Z,3.33
2023-01-12T20:28:36.778Z,4.43
2023-01-12T20:31:17.072Z,2.97
2023-01-12T20:33:44.501Z,3.47
2023-01-12T20:36:14.583Z,3.50
2023-01-12T20:38:47.154Z,2.85
2023-01-12T20:41:15.119Z,2.28
2023-01-12T20:43:42.418Z,3.15
2023-01-12T20:46:13.107Z,2.50
2023-01-12T20:51:14.101Z,3.28
2023-01-12T20:53:41.975Z,3.33
2023-01-12T20:56:10.121Z,2.47
2023-01-12T20:58:37.672Z,2.38
2023-01-12T21:01:13.531Z,3.40
2023-01-12T21:03:50.235Z,2.83
2023-01-12T21:06:21.057Z,2.88
2023-01-12T21:08:49.010Z,2.80
2023-01-12T21:11:19.400Z,3.45
2023-01-12T21:13:47.145Z,2.75
2023-01-12T21:16:18.387Z,3.40
2023-01-12T21:18:47.308Z,2.83
2023-01-12T21:21:15.346Z,2.95
2023-01-12T21:23:42.896Z,2.88
2023-01-12T21:26:11.738Z,3.17
2023-01-12T21:28:40.158Z,2.95
2023-01-12T21:31:09.113Z,2.75
2023-01-12T21:33:36.759Z,2.63
2023-01-12T21:36:04.309Z,3.03
2023-01-12T21:38:32.705Z,2.97
2023-01-12T21:41:04.912Z,4.15
2023-01-12T21:43:33.784Z,2.90
2023-01-12T21:46:09.860Z,2.90
2023-01-12T21:48:37.603Z,1.92
2023-01-12T21:51:07.234Z,3.40
2023-01-12T21:53:35.302Z,3.03
2023-01-12T21:56:04.845Z,2.60
2023-01-12T21:58:36.501Z,2.20
2023-01-12T22:01:08.729Z,2.88
2023-01-12T22:03:36.406Z,2.70
2023-01-12T22:06:07.623Z,3.22
2023-01-12T22:08:36.979Z,3.13
2023-01-12T22:11:15.917Z,2.90
2023-01-12T22:13:44.307Z,3.00
2023-01-12T22:16:14.072Z,4.22
2023-01-12T22:18:46.206Z,2.60
2023-01-12T22:21:13.805Z,2.78
2023-01-12T22:23:41.419Z,2.80
2023-01-12T22:26:11.430Z,3.58
2023-01-12T22:28:40.857Z,3.00
2023-01-12T22:31:16.898Z,3.35
2023-01-12T22:33:57.721Z,4.55
2023-01-12T22:38:52.862Z,2.60
2023-01-12T22:41:22.332Z,3.78
2023-01-12T22:43:49.626Z,3.78
2023-01-12T22:46:22.668Z,2.70
2023-01-12T22:49:01.992Z,3.08
2023-01-12T22:51:29.739Z,2.92
2023-01-12T22:53:57.870Z,3.38
2023-01-12T22:56:25.674Z,2.60
2023-01-12T22:58:55.333Z,3.10
2023-01-12T23:01:25.438Z,4.43
2023-01-12T23:03:57.149Z,4.22
2023-01-12T23:06:26.760Z,3.13
2023-01-12T23:08:54.125Z,4.20
2023-01-12T23:11:25.055Z,2.95
2023-01-12T23:13:57.015Z,4.18
2023-01-12T23:16:26.493Z,3.83
2023-01-12T23:18:55.365Z,3.58
2023-01-12T23:21:48.759Z,4.65
2023-01-12T23:24:16.138Z,3.83
2023-01-12T23:26:43.593Z,3.65
2023-01-12T23:29:10.909Z,3.88
2023-01-12T23:31:38.309Z,4.38
2023-01-12T23:34:05.622Z,3.45
2023-01-12T23:36:33.835Z,3.90
2023-01-12T23:39:04.063Z,3.97
2023-01-12T23:41:34.101Z,3.20
2023-01-12T23:44:04.432Z,3.78
2023-01-12T23:46:35.542Z,3.97
2023-01-12T23:49:03.993Z,3.05
2023-01-12T23:51:31.964Z,3.35
2023-01-12T23:54:01.465Z,3.65
2023-01-12T23:56:30.698Z,3.38
2023-01-12T23:58:58.631Z,4.18
